Flight Track Log - Related Links

Times and Time Zones

All times are in EDT time to prevent confusion due to time zone crossing. See the N362JV flight status page for this flight to view local times or setup timezone preferences in your user account.

Time Position Orientation Groundspeed Altitude Reporting Facility
EDT Latitude Longitude Course Direction KTS MPH feet Rate Location/Type
Tue 10:32:00 AM 36.0010 -80.2648 58° Northeast  Level FlightAware Approximate
Tue 10:33:00 AM 36.0200 -80.2267 58° Northeast  Level FlightAware Approximate
Tue 10:34:00 AM 36.0396 -80.1891 55° Northeast  Level FlightAware Approximate
Tue 10:35:00 AM 36.0605 -80.1526 55° Northeast  Level FlightAware Approximate
Tue 10:36:00 AM 36.0813 -80.1160 55° Northeast  Level FlightAware Approximate
Tue 10:37:00 AM 36.1020 -80.0793 58° Northeast  Level FlightAware Approximate
Tue 10:38:00 AM 36.1213 -80.0415 56° Northeast  Level FlightAware Approximate
Tue 10:39:00 AM 36.1416 -80.0044 56° Northeast  Level FlightAware Approximate
Tue 10:39:44 AM 36.2858 -79.6375 90° East 162 186 11,500  Level Washington Center
Tue 10:40:00 AM 36.1619 -79.9673 56° Northeast  Level FlightAware Approximate
Tue 10:40:45 AM 36.3125 -79.5875 56° Northeast 178 205 11,500  Level Washington Center
Tue 10:41:00 AM 36.1821 -79.9301 56° Northeast  Level FlightAware Approximate
Tue 10:41:42 AM 36.3439 -79.5297 56° Northeast 184 212 11,500  Level Washington Center
Tue 10:42:00 AM 36.2024 -79.8930 56° Northeast  Level FlightAware Approximate
Tue 10:42:43 AM 36.3725 -79.4769 56° Northeast 184 212 11,500  Level Washington Center
Tue 10:43:00 AM 36.2167 -79.8536 90° East  Level FlightAware Approximate
Tue 10:43:44 AM 36.4014 -79.4267 54° Northeast 189 217 11,400  Level Washington Center
Tue 10:44:45 AM 36.4281 -79.3739 58° Northeast 189 217 11,400  Level Washington Center
Tue 10:45:43 AM 36.4569 -79.3211 56° Northeast 189 217 11,400  Level Washington Center
Tue 10:46:44 AM 36.4878 -79.2656 55° Northeast 189 217 11,400  Level Washington Center
Tue 10:47:44 AM 36.5167 -79.2103 57° Northeast 189 217 11,400  Level Washington Center
Tue 10:48:45 AM 36.5453 -79.1597 55° Northeast 189 217 11,400  Level Washington Center
Tue 10:49:43 AM 36.5739 -79.1094 55° Northeast 184 212 11,400 50 Level Washington Center
Tue 10:50:44 AM 36.6047 -79.0539 55° Northeast 184 212 11,500 50 Climbing Washington Center
Tue 10:51:44 AM 36.6333 -78.9981 57° Northeast 179 206 11,500  Level Washington Center
Tue 10:52:43 AM 36.6619 -78.9450 56° Northeast 184 212 11,500  Level Washington Center
Tue 10:53:44 AM 36.6908 -78.8867 58° Northeast 191 220 11,500  Level Washington Center
Tue 10:54:45 AM 36.7194 -78.8336 56° Northeast 191 220 11,500  Level Washington Center
Tue 10:55:45 AM 36.7481 -78.7778 57° Northeast 191 220 11,500  Level Washington Center
Tue 10:56:42 AM 36.7764 -78.7244 56° Northeast 191 220 11,500  Level Washington Center
Tue 10:57:43 AM 36.8050 -78.6711 56° Northeast 191 220 11,500  Level Washington Center
Tue 10:58:43 AM 36.8314 -78.6178 58° Northeast 186 214 11,500  Level Washington Center
Tue 10:59:44 AM 36.8619 -78.5617 56° Northeast 186 214 11,500  Level Washington Center
Tue 11:00:45 AM 36.8906 -78.5083 56° Northeast 186 214 11,500  Level Washington Center
Tue 11:01:45 AM 36.9167 -78.4600 56° Northeast 186 214 11,500  Level Washington Center
Tue 11:02:43 AM 36.9472 -78.4014 57° Northeast 191 220 11,500  Level Washington Center
Tue 11:03:43 AM 36.9778 -78.3478 54° Northeast 191 220 11,500  Level Washington Center
Tue 11:04:44 AM 37.0061 -78.2917 58° Northeast 191 220 11,500  Level Washington Center
Tue 11:05:43 AM 37.0344 -78.2378 57° Northeast 191 220 11,500  Level Washington Center
Tue 11:06:43 AM 37.0628 -78.1842 56° Northeast 191 220 11,500  Level Washington Center
Tue 11:07:44 AM 37.0889 -78.1278 60° Northeast 191 220 11,500  Level Washington Center
Tue 11:08:45 AM 37.1172 -78.0742 56° Northeast 185 213 11,500 -50 Level Washington Center
Tue 11:09:43 AM 37.1456 -78.0178 58° Northeast 185 213 11,400 -454 Descending Washington Center
Tue 11:10:44 AM 37.1758 -77.9561 58° Northeast 190 219 10,600 -787 Descending Washington Center
Tue 11:11:45 AM 37.2083 -77.8944 56° Northeast 200 230 9,800 -807 Descending Washington Center
Tue 11:12:43 AM 37.2431 -77.8303 56° Northeast 205 236 9,000 -814 Descending Washington Center
Tue 11:13:43 AM 37.2733 -77.7686 58° Northeast 205 236 8,200 -800 Descending Washington Center
Tue 11:14:43 AM 37.3036 -77.7094 57° Northeast 205 236 7,400 -875 Descending Washington Center
Tue 11:16:55 AM 37.3667 -77.5667 61° Northeast 200 230 5,400 -866 Descending Potomac TRACON
Tue 11:17:50 AM 37.4000 -77.5167 50° Northeast 197 227 4,700 -887 Descending Potomac TRACON
Tue 11:18:50 AM 37.4167 -77.4500 73° East 199 229 3,700 -842 Descending Potomac TRACON
Tue 11:19:44 AM 37.4333 -77.4000 67° East 183 211 3,100 -789 Descending Potomac TRACON
Tue 11:20:44 AM 37.4500 -77.3500 67° East 133 153 2,200 -1,041 Descending Potomac TRACON
Tue 11:21:45 AM 37.4833 -77.3333 22° Northeast 111 128 1,000 -1,180 Descending Potomac TRACON
Tue 11:23:00 AM 37.5000 -77.3167 58° Northeast  Level FlightAware Approximate
Tue 11:30:00 AM 37.5052 -77.3197 58° Northeast  Level Estimated
Tue 11:31:00 AM 37.5052 -77.3197 155° Southeast  Level Estimated

Login

Don't have an account? Register now (free) for customized features, flight alerts, and more!